Time;durP1;ratioP1;P1;durP2;ratioP2;P2;SDS_P1;SDS_P2;PMS_P1;PMS_P2;Temp;Humidity;BMP_temperature;BMP_pressure;BME280_temperature;BME280_humidity;BME280_pressure;Samples;Min_cycle;Max_cycle;Signal;HPM_P1;HPM_P2
2022/10/01 00:01:44;;;;;;;29.60;18.25;;;;;;;;;;5008493;28;19917;-74
2022/10/01 00:04:10;;;;;;;;;;;;;;;;;;5012250;28;20471;-74
2022/10/01 00:06:35;;;;;;;22.83;17.58;;;;;;;;;;5008577;28;19909;-74
2022/10/01 00:09:00;;;;;;;;;;;;;;;;;;5004571;28;20065;-75
2022/10/01 00:11:26;;;;;;;22.73;16.88;;;;;;;;;;5006538;28;19910;-76
2022/10/01 00:13:51;;;;;;;;;;;;;;;;;;5022059;28;20034;-75
2022/10/01 00:16:18;;;;;;;20.52;16.35;;;;;;;;;;5021065;28;19909;-76
2022/10/01 00:18:44;;;;;;;21.80;16.73;;;;;;;;;;5008017;28;20041;-75
2022/10/01 00:21:09;;;;;;;;;;;;;;;;;;4988063;28;20088;-75
2022/10/01 00:23:35;;;;;;;24.77;17.88;;;;;;;;;;4999968;28;19913;-75
2022/10/01 00:26:00;;;;;;;;;;;;;;;;;;5010309;28;20381;-75
2022/10/01 00:28:26;;;;;;;21.05;16.35;;;;;;;;;;5025168;28;19913;-75
2022/10/01 00:30:51;;;;;;;;;;;;;;;;;;4985574;28;20458;-75
2022/10/01 00:33:17;;;;;;;27.13;18.02;;;;;;;;;;5024115;28;20404;-74
2022/10/01 00:35:42;;;;;;;;;;;;;;;;;;5002492;28;20034;-74
2022/10/01 00:38:07;;;;;;;22.48;17.38;;;;;;;;;;5024853;28;19913;-75
2022/10/01 00:40:33;;;;;;;22.13;16.77;;;;;;;;;;5005184;28;20049;-74
2022/10/01 00:42:58;;;;;;;;;;;;;;;;;;4990959;28;20087;-74
2022/10/01 00:45:24;;;;;;;24.08;15.95;;;;;;;;;;5022411;28;19909;-75
2022/10/01 00:47:50;;;;;;;19.38;15.40;;;;;;;;;;5024226;28;20487;-74
2022/10/01 00:50:16;;;;;;;18.73;15.50;;;;;;;;;;5005077;28;20034;-74
2022/10/01 00:52:41;;;;;;;;;;;;;;;;;;5023340;28;20056;-74
2022/10/01 00:55:10;;;;;;;27.30;18.65;;;;;;;;;;5017496;28;19910;-75
2022/10/01 00:57:36;;;;;;;24.85;17.42;;;;;;;;;;5024302;28;20037;-73
2022/10/01 01:00:01;;;;;;;;;;;;;;;;;;4984496;28;20033;-75
2022/10/01 01:02:27;;;;;;;38.53;16.88;;;;;;;;;;5005982;28;20015;-74
2022/10/01 01:04:52;;;;;;;27.90;17.17;;;;;;;;;;5020419;28;20014;-74
2022/10/01 01:07:18;;;;;;;67.72;21.35;;;;;;;;;;5004141;28;20064;-75
2022/10/01 01:09:43;;;;;;;;;;;;;;;;;;5009977;28;20029;-74
2022/10/01 01:12:27;;;;;;;20.20;16.00;;;;;;;;;;4991237;28;19948;-75
2022/10/01 01:14:56;;;;;;;19.60;16.25;;;;;;;;;;5012540;28;20482;-75
2022/10/01 01:17:33;;;;;;;20.83;16.75;;;;;;;;;;5027803;28;20027;-75
2022/10/01 01:20:02;;;;;;;19.90;16.05;;;;;;;;;;4998541;28;20026;-75
2022/10/01 01:22:28;;;;;;;24.38;18.10;;;;;;;;;;5025930;28;20013;-74
2022/10/01 01:24:55;;;;;;;90.68;20.00;;;;;;;;;;5004660;28;20053;-75
2022/10/01 01:27:29;;;;;;;32.10;17.95;;;;;;;;;;4975116;28;20026;-75
2022/10/01 01:30:03;;;;;;;36.40;16.90;;;;;;;;;;5008042;28;20942;-75
2022/10/01 01:32:34;;;;;;;27.52;16.95;;;;;;;;;;5017469;28;20120;-75
2022/10/01 01:35:01;;;;;;;22.83;16.77;;;;;;;;;;5010711;28;20041;-74
2022/10/01 01:37:26;;;;;;;22.55;17.00;;;;;;;;;;4994662;28;20032;-74
2022/10/01 01:39:52;;;;;;;;;;;;;;;;;;5011316;28;20049;-74
2022/10/01 01:42:23;;;;;;;25.58;17.55;;;;;;;;;;5028341;28;19916;-74
2022/10/01 01:44:49;;;;;;;51.72;18.20;;;;;;;;;;5014882;28;20040;-74
2022/10/01 01:47:15;;;;;;;25.50;17.52;;;;;;;;;;5011611;28;20026;-75
2022/10/01 01:49:40;;;;;;;;;;;;;;;;;;4999015;28;20096;-75
2022/10/01 01:52:13;;;;;;;29.55;18.13;;;;;;;;;;5011063;28;19909;-75
2022/10/01 01:54:38;;;;;;;49.13;18.73;;;;;;;;;;4982215;28;20481;-74
2022/10/01 01:57:04;;;;;;;;;;;;;;;;;;5009266;28;20062;-75
2022/10/01 01:59:30;;;;;;;44.92;18.95;;;;;;;;;;4997689;28;19917;-74
2022/10/01 02:01:57;;;;;;;37.42;18.17;;;;;;;;;;5002312;28;20025;-75
2022/10/01 02:04:49;;;;;;;47.45;18.52;;;;;;;;;;4990900;28;20044;-74
2022/10/01 02:07:15;;;;;;;35.60;19.42;;;;;;;;;;5008116;28;20049;-75
2022/10/01 02:09:40;;;;;;;;;;;;;;;;;;5023215;28;20030;-75
2022/10/01 02:12:09;;;;;;;44.70;26.25;;;;;;;;;;5026761;28;19913;-73
2022/10/01 02:14:37;;;;;;;139.40;22.20;;;;;;;;;;5021945;28;20464;-73
2022/10/01 02:17:15;;;;;;;97.60;22.25;;;;;;;;;;5009110;28;20069;-74
2022/10/01 02:19:47;;;;;;;39.70;19.35;;;;;;;;;;4997828;28;20033;-73
2022/10/01 02:22:20;;;;;;;123.00;21.75;;;;;;;;;;5009325;28;20065;-73
2022/10/01 02:24:55;;;;;;;45.55;20.35;;;;;;;;;;5006827;28;20038;-73
2022/10/01 02:27:27;;;;;;;40.17;18.98;;;;;;;;;;5013881;28;20056;-73
2022/10/01 02:29:53;;;;;;;29.65;19.23;;;;;;;;;;5001366;28;20038;-73
2022/10/01 02:32:18;;;;;;;;;;;;;;;;;;5007972;28;20108;-74
2022/10/01 02:34:44;;;;;;;73.05;21.50;;;;;;;;;;5019894;28;19913;-75
2022/10/01 02:37:09;;;;;;;;;;;;;;;;;;5007732;28;20056;-75
2022/10/01 02:39:35;;;;;;;88.70;22.30;;;;;;;;;;5021328;28;20384;-75
2022/10/01 02:42:00;;;;;;;;;;;;;;;;;;5000192;28;20100;-75
2022/10/01 02:44:28;;;;;;;90.10;19.83;;;;;;;;;;5012744;28;19913;-75
2022/10/01 02:46:57;;;;;;;42.65;20.73;;;;;;;;;;5005505;28;20091;-75
2022/10/01 02:49:22;;;;;;;32.45;19.08;;;;;;;;;;5012295;28;20057;-75
2022/10/01 02:51:48;;;;;;;;;;;;;;;;;;5025239;28;20061;-73
2022/10/01 02:54:15;;;;;;;54.13;20.90;;;;;;;;;;5029987;28;19944;-73
2022/10/01 02:59:25;;;;;;;32.00;19.00;;;;;;;;;;5013551;28;20046;-73
2022/10/01 03:01:50;;;;;;;;;;;;;;;;;;4998489;28;20037;-74
2022/10/01 03:04:17;;;;;;;25.65;18.00;;;;;;;;;;5027585;28;19913;-74
2022/10/01 03:06:42;;;;;;;28.33;18.38;;;;;;;;;;4996343;28;20028;-74
2022/10/01 03:09:07;;;;;;;;;;;;;;;;;;5020517;28;20384;-74
2022/10/01 03:11:33;;;;;;;34.17;19.20;;;;;;;;;;4980857;28;19959;-74
2022/10/01 03:14:00;;;;;;;;;;;;;;;;;;5009168;28;20378;-74
2022/10/01 03:16:25;;;;;;;27.33;18.83;;;;;;;;;;4986473;28;20423;-75
2022/10/01 03:18:51;;;;;;;27.58;19.33;;;;;;;;;;5018146;28;20060;-74
2022/10/01 03:21:16;;;;;;;;;;;;;;;;;;5012383;28;20035;-74
2022/10/01 03:23:41;;;;;;;43.95;20.38;;;;;;;;;;5029839;28;20011;-74
2022/10/01 03:26:07;;;;;;;52.55;20.88;;;;;;;;;;4995672;28;20026;-75
2022/10/01 03:28:33;;;;;;;45.58;20.92;;;;;;;;;;5005403;28;20060;-74
2022/10/01 03:30:58;;;;;;;;;;;;;;;;;;4999088;28;20025;-75
2022/10/01 03:33:24;;;;;;;35.67;20.60;;;;;;;;;;5010891;28;20330;-74
2022/10/01 03:35:49;;;;;;;49.38;23.48;;;;;;;;;;5008032;28;20030;-74
2022/10/01 03:38:15;;;;;;;40.33;22.20;;;;;;;;;;5027642;28;20053;-75
2022/10/01 03:40:40;;;;;;;71.30;26.17;;;;;;;;;;5006861;28;20091;-75
2022/10/01 03:43:06;;;;;;;;;;;;;;;;;;5028498;28;20381;-75
2022/10/01 03:45:31;;;;;;;51.08;24.80;;;;;;;;;;5024023;28;19920;-75
2022/10/01 03:47:57;;;;;;;81.55;25.02;;;;;;;;;;5009971;28;20040;-74
2022/10/01 03:50:22;;;;;;;143.40;43.92;;;;;;;;;;5020965;28;20075;-74
2022/10/01 03:52:50;;;;;;;80.10;27.00;;;;;;;;;;5004523;28;20041;-75
2022/10/01 03:55:15;;;;;;;105.32;27.23;;;;;;;;;;5007785;28;20030;-75
2022/10/01 03:57:40;;;;;;;;;;;;;;;;;;5011426;28;20029;-75
2022/10/01 04:00:06;;;;;;;70.50;26.63;;;;;;;;;;5024670;28;19912;-74
2022/10/01 04:02:36;;;;;;;89.07;23.90;;;;;;;;;;5026559;28;20080;-74
2022/10/01 04:05:02;;;;;;;;;;;;;;;;;;5006413;28;20501;-75
2022/10/01 04:07:27;;;;;;;172.07;27.65;;;;;;;;;;5009835;28;19920;-75
2022/10/01 04:09:52;;;;;;;;;;;;;;;;;;5007427;28;20030;-75
2022/10/01 04:12:18;;;;;;;61.70;23.85;;;;;;;;;;5009478;28;19928;-74
2022/10/01 04:14:43;;;;;;;88.70;24.75;;;;;;;;;;5023431;28;20404;-74
2022/10/01 04:17:09;;;;;;;145.00;27.63;;;;;;;;;;4993261;28;20053;-74
2022/10/01 04:19:34;;;;;;;69.90;25.77;;;;;;;;;;4999226;28;20029;-75
2022/10/01 04:22:00;;;;;;;80.38;25.02;;;;;;;;;;4998499;28;20036;-74
2022/10/01 04:24:25;;;;;;;386.38;39.92;;;;;;;;;;5009951;28;20029;-74
2022/10/01 04:26:51;;;;;;;380.70;40.30;;;;;;;;;;5002419;28;20034;-74
2022/10/01 04:29:16;;;;;;;;;;;;;;;;;;4993355;28;20025;-74
2022/10/01 04:31:42;;;;;;;109.90;26.45;;;;;;;;;;5012128;28;19920;-74
2022/10/01 04:34:07;;;;;;;;;;;;;;;;;;5006341;28;20030;-74
2022/10/01 04:36:32;;;;;;;66.93;22.73;;;;;;;;;;5004340;28;19913;-74
2022/10/01 04:38:58;;;;;;;78.82;22.50;;;;;;;;;;5025380;28;20421;-74
2022/10/01 04:41:24;;;;;;;68.47;22.55;;;;;;;;;;5010195;28;20033;-74
2022/10/01 04:43:50;;;;;;;75.80;21.98;;;;;;;;;;5023442;28;20073;-74
2022/10/01 04:46:15;;;;;;;142.15;26.50;;;;;;;;;;5027586;28;20861;-74
2022/10/01 04:48:41;;;;;;;147.57;28.70;;;;;;;;;;5020961;28;20034;-75
2022/10/01 04:51:07;;;;;;;154.98;28.92;;;;;;;;;;5003504;28;20028;-77
2022/10/01 04:53:32;;;;;;;;;;;;;;;;;;4997374;28;20092;-76
2022/10/01 04:55:57;;;;;;;104.25;26.15;;;;;;;;;;5019177;28;19910;-75
2022/10/01 04:58:23;;;;;;;;;;;;;;;;;;4987796;28;20034;-74
2022/10/01 05:00:49;;;;;;;69.18;24.88;;;;;;;;;;5009162;28;19916;-77
2022/10/01 05:03:14;;;;;;;;;;;;;;;;;;5021119;28;20115;-79
2022/10/01 05:05:39;;;;;;;40.70;22.40;;;;;;;;;;5008997;28;19919;-79
2022/10/01 05:08:05;;;;;;;;;;;;;;;;;;5020297;28;20026;-76
2022/10/01 05:10:31;;;;;;;36.30;17.65;;;;;;;;;;5026342;28;19935;-81
2022/10/01 05:12:57;;;;;;;;;;;;;;;;;;4978949;28;20037;-75
2022/10/01 05:15:22;;;;;;;24.80;16.30;;;;;;;;;;5026176;28;20004;-75
2022/10/01 05:17:48;;;;;;;36.13;17.35;;;;;;;;;;5018531;28;20121;-78
2022/10/01 05:20:17;;;;;;;28.88;16.90;;;;;;;;;;4988337;28;20032;-74
2022/10/01 05:22:44;;;;;;;30.52;18.63;;;;;;;;;;5027665;28;20079;-79
2022/10/01 05:25:09;;;;;;;26.05;18.35;;;;;;;;;;5012472;28;20041;-77
2022/10/01 05:27:36;;;;;;;45.20;16.63;;;;;;;;;;4996322;28;20040;-78
2022/10/01 05:30:02;;;;;;;27.33;16.80;;;;;;;;;;5013300;28;20034;-79
2022/10/01 05:32:28;;;;;;;27.38;16.58;;;;;;;;;;4996685;28;20122;-80
2022/10/01 05:34:53;;;;;;;26.17;16.65;;;;;;;;;;4998580;28;20112;-81
2022/10/01 05:37:19;;;;;;;22.27;15.77;;;;;;;;;;5022607;28;20049;-77
2022/10/01 05:39:44;;;;;;;29.42;16.60;;;;;;;;;;5012217;28;20060;-80
2022/10/01 05:42:10;;;;;;;26.77;17.52;;;;;;;;;;5021446;28;20117;-79
2022/10/01 05:44:36;;;;;;;27.65;16.35;;;;;;;;;;5009889;28;20131;-78
2022/10/01 05:47:05;;;;;;;29.33;17.00;;;;;;;;;;5003994;28;20034;-80
2022/10/01 05:49:31;;;;;;;30.67;16.25;;;;;;;;;;4976616;28;20487;-76
2022/10/01 05:51:59;;;;;;;22.17;15.15;;;;;;;;;;5007003;28;20073;-77
2022/10/01 05:54:24;;;;;;;27.90;17.77;;;;;;;;;;5000261;28;20041;-77
2022/10/01 05:56:50;;;;;;;33.45;22.73;;;;;;;;;;5011685;28;20033;-78
2022/10/01 05:59:15;;;;;;;25.40;15.82;;;;;;;;;;4981192;28;20044;-78
2022/10/01 06:01:41;;;;;;;23.25;15.35;;;;;;;;;;5001059;28;20048;-77
2022/10/01 06:04:08;;;;;;;22.60;15.27;;;;;;;;;;5006989;28;20030;-77
2022/10/01 06:06:33;;;;;;;26.40;15.48;;;;;;;;;;5009162;28;20023;-78
2022/10/01 06:08:59;;;;;;;27.40;15.93;;;;;;;;;;4986666;28;20041;-77
2022/10/01 06:11:25;;;;;;;24.85;16.33;;;;;;;;;;5016629;28;20024;-78
2022/10/01 06:13:51;;;;;;;27.38;15.85;;;;;;;;;;5021426;28;20042;-78
2022/10/01 06:16:17;;;;;;;26.13;16.10;;;;;;;;;;5004536;28;20358;-78
2022/10/01 06:18:42;;;;;;;23.88;14.70;;;;;;;;;;5004071;28;20409;-78
2022/10/01 06:21:08;;;;;;;;;;;;;;;;;;5014863;28;20071;-76
2022/10/01 06:23:33;;;;;;;25.50;16.70;;;;;;;;;;5024264;28;19913;-78
2022/10/01 06:25:59;;;;;;;22.35;15.30;;;;;;;;;;5013290;28;20099;-78
2022/10/01 06:28:25;;;;;;;22.80;15.38;;;;;;;;;;5006695;28;20041;-77
2022/10/01 06:30:51;;;;;;;25.25;16.02;;;;;;;;;;5027952;28;20042;-79
2022/10/01 06:33:17;;;;;;;23.65;15.77;;;;;;;;;;5014748;28;20517;-79
2022/10/01 06:35:43;;;;;;;22.08;16.23;;;;;;;;;;4994068;28;20030;-76
2022/10/01 06:38:09;;;;;;;21.50;14.70;;;;;;;;;;4998075;28;20041;-77
2022/10/01 06:40:35;;;;;;;18.38;12.60;;;;;;;;;;5014957;28;20543;-78
2022/10/01 06:43:01;;;;;;;18.05;13.80;;;;;;;;;;5015341;28;20068;-81
2022/10/01 06:45:27;;;;;;;14.38;10.90;;;;;;;;;;5006856;28;20117;-80
2022/10/01 06:47:54;;;;;;;12.68;10.48;;;;;;;;;;5016434;28;20490;-81
2022/10/01 06:50:20;;;;;;;17.15;14.05;;;;;;;;;;4988708;28;20636;-80
2022/10/01 06:52:48;;;;;;;15.90;12.32;;;;;;;;;;5026069;28;20069;-82
2022/10/01 06:55:16;;;;;;;14.20;10.15;;;;;;;;;;4975403;28;20022;-79
2022/10/01 06:57:41;;;;;;;15.32;11.15;;;;;;;;;;5012534;28;20540;-80
2022/10/01 07:00:07;;;;;;;13.32;9.02;;;;;;;;;;5017184;28;20085;-79
2022/10/01 07:02:33;;;;;;;14.75;9.32;;;;;;;;;;5003096;28;20030;-81
2022/10/01 07:04:59;;;;;;;12.15;8.63;;;;;;;;;;5005488;28;20030;-81
2022/10/01 07:07:24;;;;;;;;;;;;;;;;;;5010375;28;20061;-81
2022/10/01 07:09:50;;;;;;;8.68;7.13;;;;;;;;;;5008483;28;19910;-80
2022/10/01 07:12:16;;;;;;;9.90;8.73;;;;;;;;;;5028406;28;20048;-79
2022/10/01 07:14:41;;;;;;;8.05;6.88;;;;;;;;;;5000993;28;20397;-82
2022/10/01 07:17:07;;;;;;;17.55;7.93;;;;;;;;;;5004304;28;20053;-81
2022/10/01 07:19:32;;;;;;;12.65;7.20;;;;;;;;;;5005628;28;20021;-80
2022/10/01 07:21:58;;;;;;;;;;;;;;;;;;5003113;28;20394;-78
2022/10/01 07:24:24;;;;;;;8.18;6.93;;;;;;;;;;5004342;28;20033;-81
2022/10/01 07:26:50;;;;;;;8.15;6.82;;;;;;;;;;5002454;28;20523;-82
2022/10/01 07:29:15;;;;;;;7.55;6.28;;;;;;;;;;5002687;28;20030;-76
2022/10/01 07:31:41;;;;;;;;;;;;;;;;;;5015407;28;20487;-77
2022/10/01 07:34:06;;;;;;;7.32;5.43;;;;;;;;;;5004409;28;19917;-79
2022/10/01 07:36:57;;;;;;;6.65;5.63;;;;;;;;;;5014228;28;20028;-80
2022/10/01 07:39:23;;;;;;;5.63;5.00;;;;;;;;;;4990350;28;20505;-78
2022/10/01 07:41:50;;;;;;;6.95;5.57;;;;;;;;;;5015463;28;20029;-79
2022/10/01 07:44:16;;;;;;;9.15;6.50;;;;;;;;;;4997920;28;20037;-79
2022/10/01 07:46:41;;;;;;;10.02;6.32;;;;;;;;;;4998216;28;20026;-79
2022/10/01 07:49:07;;;;;;;7.15;5.30;;;;;;;;;;5009614;28;20460;-79
2022/10/01 07:51:32;;;;;;;6.65;5.43;;;;;;;;;;4994976;28;20025;-77
2022/10/01 07:53:58;;;;;;;7.35;4.50;;;;;;;;;;4979135;28;20030;-79
2022/10/01 07:56:24;;;;;;;4.53;3.63;;;;;;;;;;4992894;28;20068;-78
2022/10/01 07:58:53;;;;;;;4.43;3.58;;;;;;;;;;4980416;28;20030;-80
2022/10/01 08:01:19;;;;;;;5.25;3.28;;;;;;;;;;4991833;28;20026;-78
2022/10/01 08:03:46;;;;;;;4.65;3.55;;;;;;;;;;4995891;28;20515;-78
2022/10/01 08:06:12;;;;;;;5.35;3.33;;;;;;;;;;5008723;28;20034;-78
2022/10/01 08:08:39;;;;;;;5.05;3.58;;;;;;;;;;5005070;28;20033;-78
2022/10/01 08:11:06;;;;;;;5.53;3.50;;;;;;;;;;4997877;28;20026;-78
2022/10/01 08:13:32;;;;;;;3.67;3.00;;;;;;;;;;4980925;28;20029;-78
2022/10/01 08:15:58;;;;;;;4.43;3.40;;;;;;;;;;4993736;28;20040;-77
2022/10/01 08:18:23;;;;;;;4.25;3.35;;;;;;;;;;4981877;28;20038;-78
2022/10/01 08:20:49;;;;;;;3.88;2.95;;;;;;;;;;5005636;28;20026;-78
2022/10/01 08:23:15;;;;;;;4.32;3.05;;;;;;;;;;4995368;28;20057;-78
2022/10/01 08:25:40;;;;;;;4.10;2.90;;;;;;;;;;5004923;28;20081;-79
2022/10/01 08:28:08;;;;;;;5.13;3.40;;;;;;;;;;4995758;28;20029;-77
2022/10/01 08:30:34;;;;;;;4.13;3.28;;;;;;;;;;5000346;28;20029;-78
2022/10/01 08:33:00;;;;;;;4.38;3.40;;;;;;;;;;4989166;28;20047;-79
2022/10/01 08:35:26;;;;;;;3.42;2.80;;;;;;;;;;4990471;28;20026;-77
2022/10/01 08:37:54;;;;;;;4.22;3.00;;;;;;;;;;5007078;28;20035;-78
2022/10/01 08:40:20;;;;;;;3.05;2.70;;;;;;;;;;5002567;28;20046;-79
2022/10/01 08:42:47;;;;;;;4.28;3.28;;;;;;;;;;4973136;28;20025;-79
2022/10/01 08:45:14;;;;;;;3.45;2.70;;;;;;;;;;4997414;28;20132;-78
2022/10/01 08:47:50;;;;;;;3.38;2.55;;;;;;;;;;5002202;28;20057;-79
2022/10/01 08:50:25;;;;;;;3.72;2.85;;;;;;;;;;5000812;28;20549;-79
2022/10/01 08:52:51;;;;;;;3.17;2.60;;;;;;;;;;5011416;28;20176;-79
2022/10/01 08:55:19;;;;;;;3.13;2.75;;;;;;;;;;4996996;28;20053;-78
2022/10/01 08:57:52;;;;;;;2.78;2.38;;;;;;;;;;4987655;28;20073;-81
2022/10/01 09:00:18;;;;;;;5.78;2.65;;;;;;;;;;5001382;28;20169;-78
2022/10/01 09:02:45;;;;;;;3.17;2.53;;;;;;;;;;5003640;28;20484;-77
2022/10/01 09:05:19;;;;;;;3.50;2.28;;;;;;;;;;5002149;28;20038;-80
2022/10/01 09:07:48;;;;;;;3.55;2.25;;;;;;;;;;5013855;28;20061;-79
2022/10/01 09:10:19;;;;;;;3.00;2.08;;;;;;;;;;5002796;28;20400;-82
2022/10/01 09:12:47;;;;;;;3.00;2.00;;;;;;;;;;4998073;28;20142;-81
2022/10/01 09:15:25;;;;;;;2.70;2.20;;;;;;;;;;5001805;28;20034;-80
2022/10/01 09:18:06;;;;;;;3.20;2.60;;;;;;;;;;5003309;28;20077;-80
2022/10/01 09:20:35;;;;;;;3.38;2.50;;;;;;;;;;4993900;28;20072;-80
2022/10/01 09:23:19;;;;;;;2.75;2.10;;;;;;;;;;5009432;28;20030;-80
2022/10/01 09:25:48;;;;;;;3.45;2.50;;;;;;;;;;5028381;28;20124;-79
2022/10/01 09:28:15;;;;;;;3.00;2.30;;;;;;;;;;4992170;28;20018;-82
2022/10/01 09:30:41;;;;;;;3.03;2.20;;;;;;;;;;5012235;28;20041;-80
2022/10/01 09:33:15;;;;;;;3.88;2.10;;;;;;;;;;5005894;28;20095;-78
2022/10/01 09:35:43;;;;;;;2.60;2.20;;;;;;;;;;5009042;28;20487;-78
2022/10/01 09:38:16;;;;;;;3.95;2.30;;;;;;;;;;5013908;28;20029;-79
2022/10/01 09:40:48;;;;;;;2.40;2.00;;;;;;;;;;5007224;28;20104;-78
2022/10/01 09:43:17;;;;;;;2.58;2.10;;;;;;;;;;5023793;28;20091;-77
2022/10/01 09:45:46;;;;;;;4.10;2.38;;;;;;;;;;5028783;28;20116;-78
2022/10/01 09:48:23;;;;;;;2.78;2.30;;;;;;;;;;5027045;28;20454;-77
2022/10/01 09:51:18;;;;;;;3.00;2.30;;;;;;;;;;5037135;28;20091;-78
2022/10/01 09:53:46;;;;;;;2.70;2.03;;;;;;;;;;5011549;28;20044;-78
2022/10/01 09:56:14;;;;;;;3.83;2.10;;;;;;;;;;5021672;28;20025;-77
2022/10/01 09:58:41;;;;;;;3.05;2.03;;;;;;;;;;5036524;28;20129;-76
2022/10/01 10:01:11;;;;;;;2.92;2.03;;;;;;;;;;5022399;28;20038;-78
2022/10/01 10:03:36;;;;;;;2.33;1.60;;;;;;;;;;5026168;28;20028;-78
2022/10/01 10:06:02;;;;;;;2.20;1.70;;;;;;;;;;5009157;28;20472;-79
2022/10/01 10:08:32;;;;;;;2.00;1.58;;;;;;;;;;5017402;28;20465;-77
2022/10/01 10:11:05;;;;;;;8.30;1.73;;;;;;;;;;5001001;28;20561;-79
2022/10/01 10:13:33;;;;;;;3.33;2.00;;;;;;;;;;5041130;28;20502;-78
2022/10/01 10:16:00;;;;;;;2.85;2.10;;;;;;;;;;4989036;28;20080;-77
2022/10/01 10:18:25;;;;;;;2.70;2.00;;;;;;;;;;5012562;28;20389;-78
2022/10/01 10:20:51;;;;;;;2.47;1.70;;;;;;;;;;5009883;28;20029;-78
2022/10/01 10:23:18;;;;;;;3.80;1.75;;;;;;;;;;5031152;28;20095;-77
2022/10/01 10:26:04;;;;;;;2.95;1.90;;;;;;;;;;5017060;28;20029;-77
2022/10/01 10:28:39;;;;;;;3.03;1.90;;;;;;;;;;5030011;28;20464;-78
2022/10/01 10:31:08;;;;;;;3.05;1.90;;;;;;;;;;5014306;28;20042;-77
2022/10/01 10:33:34;;;;;;;2.78;1.80;;;;;;;;;;5029821;28;20033;-78
2022/10/01 10:36:01;;;;;;;2.78;1.65;;;;;;;;;;5014282;28;20026;-77
2022/10/01 10:38:28;;;;;;;2.80;1.83;;;;;;;;;;5031046;28;20030;-78
2022/10/01 10:40:54;;;;;;;2.92;2.33;;;;;;;;;;5010066;28;20087;-79
2022/10/01 10:43:21;;;;;;;2.80;2.20;;;;;;;;;;5027308;28;20424;-78
2022/10/01 10:45:50;;;;;;;2.35;2.00;;;;;;;;;;5034071;28;20033;-77
2022/10/01 10:48:16;;;;;;;2.40;1.80;;;;;;;;;;5013183;28;20473;-77
2022/10/01 10:51:06;;;;;;;3.83;1.90;;;;;;;;;;5020204;28;20401;-78
2022/10/01 10:53:39;;;;;;;2.25;1.70;;;;;;;;;;5019149;28;20033;-78
2022/10/01 10:56:05;;;;;;;3.95;2.30;;;;;;;;;;5027893;28;20045;-82
2022/10/01 10:58:32;;;;;;;3.15;1.90;;;;;;;;;;5028407;28;20047;-78
2022/10/01 11:01:19;;;;;;;2.70;1.90;;;;;;;;;;4999449;28;20035;-81
2022/10/01 11:03:48;;;;;;;2.95;2.00;;;;;;;;;;4997726;28;20039;-78
2022/10/01 11:06:13;;;;;;;2.53;1.60;;;;;;;;;;5021507;28;20041;-77
2022/10/01 11:08:39;;;;;;;2.22;1.85;;;;;;;;;;5023474;28;20030;-79
2022/10/01 11:11:24;;;;;;;2.38;1.88;;;;;;;;;;5037086;28;20385;-77
2022/10/01 11:14:08;;;;;;;3.03;1.67;;;;;;;;;;4985216;28;20081;-78
2022/10/01 11:16:33;;;;;;;2.42;1.90;;;;;;;;;;5013823;28;20060;-79
2022/10/01 11:19:06;;;;;;;3.33;1.77;;;;;;;;;;5014735;28;20027;-78
2022/10/01 11:21:32;;;;;;;2.67;1.90;;;;;;;;;;5016604;28;20060;-77
2022/10/01 11:24:13;;;;;;;2.85;1.83;;;;;;;;;;5035603;28;20042;-80
2022/10/01 11:26:44;;;;;;;2.72;2.20;;;;;;;;;;5017537;28;20118;-79
2022/10/01 11:29:10;;;;;;;2.80;2.10;;;;;;;;;;4996993;28;20079;-78
2022/10/01 11:31:46;;;;;;;2.42;2.00;;;;;;;;;;5004067;28;20049;-79
2022/10/01 11:34:24;;;;;;;3.20;2.13;;;;;;;;;;5015174;28;20041;-80
2022/10/01 11:37:02;;;;;;;4.85;2.35;;;;;;;;;;5016221;28;20512;-80
2022/10/01 11:39:27;;;;;;;3.15;2.65;;;;;;;;;;5015916;28;20108;-78
2022/10/01 11:42:09;;;;;;;5.05;2.85;;;;;;;;;;5015909;28;20405;-79
2022/10/01 11:44:35;;;;;;;3.92;2.80;;;;;;;;;;5005274;28;20108;-79
2022/10/01 11:47:02;;;;;;;4.05;2.72;;;;;;;;;;4996557;28;20034;-77
2022/10/01 11:49:27;;;;;;;6.00;3.08;;;;;;;;;;4984916;28;20043;-78
2022/10/01 11:52:18;;;;;;;4.00;2.88;;;;;;;;;;4982769;28;20034;-78
2022/10/01 12:00:47;;;;;;;4.20;2.60;;;;;;;;;;4999047;28;20034;-79
2022/10/01 12:03:14;;;;;;;3.38;2.85;;;;;;;;;;4998275;28;20454;-78
2022/10/01 12:05:41;;;;;;;4.32;3.10;;;;;;;;;;5005469;28;20045;-77
2022/10/01 12:08:10;;;;;;;3.30;2.80;;;;;;;;;;5003187;28;20033;-77
2022/10/01 12:10:37;;;;;;;7.13;2.92;;;;;;;;;;5015707;28;20631;-78
2022/10/01 12:13:11;;;;;;;3.60;3.20;;;;;;;;;;5008721;28;20485;-79
2022/10/01 12:15:40;;;;;;;3.70;2.80;;;;;;;;;;4982649;28;20077;-82
2022/10/01 12:18:14;;;;;;;4.85;2.90;;;;;;;;;;4981809;28;20022;-81
2022/10/01 12:20:43;;;;;;;3.90;3.08;;;;;;;;;;4999222;28;20075;-79
2022/10/01 12:23:44;;;;;;;3.15;2.60;;;;;;;;;;5010874;28;20061;-78
2022/10/01 12:26:12;;;;;;;3.65;3.10;;;;;;;;;;4914437;29;20438;-78
2022/10/01 12:28:53;;;;;;;3.90;3.30;;;;;;;;;;4984466;28;20033;-78
2022/10/01 12:31:25;;;;;;;4.13;2.97;;;;;;;;;;4997791;28;20033;-76
2022/10/01 12:33:54;;;;;;;6.03;3.08;;;;;;;;;;4994434;28;20041;-80
2022/10/01 12:36:24;;;;;;;5.25;3.13;;;;;;;;;;4993765;28;20074;-77
2022/10/01 12:39:01;;;;;;;4.10;3.35;;;;;;;;;;4993047;28;20041;-79
2022/10/01 12:41:46;;;;;;;3.97;3.22;;;;;;;;;;5007484;28;20037;-76
2022/10/01 12:44:12;;;;;;;4.90;3.45;;;;;;;;;;5012144;28;20064;-81
2022/10/01 12:46:40;;;;;;;4.97;4.20;;;;;;;;;;5022857;28;20133;-79
2022/10/01 12:49:08;;;;;;;6.90;3.97;;;;;;;;;;5025590;28;20041;-77
2022/10/01 12:51:36;;;;;;;5.55;3.95;;;;;;;;;;4988046;28;20473;-78
2022/10/01 12:54:01;;;;;;;5.30;4.10;;;;;;;;;;4994198;28;20026;-79
2022/10/01 12:56:35;;;;;;;4.80;3.60;;;;;;;;;;5004673;28;20367;-80
2022/10/01 12:59:10;;;;;;;4.57;3.90;;;;;;;;;;4975091;28;20034;-78
2022/10/01 13:01:55;;;;;;;6.53;3.92;;;;;;;;;;5013982;28;20030;-78
2022/10/01 13:04:57;;;;;;;5.65;4.07;;;;;;;;;;5011758;28;20029;-78
2022/10/01 13:07:31;;;;;;;4.93;4.15;;;;;;;;;;4919649;29;20028;-78
2022/10/01 13:10:02;;;;;;;11.25;4.95;;;;;;;;;;4995670;28;20497;-77
2022/10/01 13:12:28;;;;;;;7.93;5.57;;;;;;;;;;4978008;28;20033;-78
2022/10/01 13:14:54;;;;;;;6.10;4.85;;;;;;;;;;5009248;28;20015;-81
2022/10/01 13:17:21;;;;;;;6.43;4.72;;;;;;;;;;4978049;28;20040;-81
2022/10/01 13:19:50;;;;;;;6.80;4.85;;;;;;;;;;5011827;28;20030;-78
2022/10/01 13:22:21;;;;;;;8.25;5.75;;;;;;;;;;4978676;28;20030;-79
2022/10/01 13:24:47;;;;;;;7.55;4.90;;;;;;;;;;4985996;28;20050;-78
2022/10/01 13:27:12;;;;;;;5.38;4.13;;;;;;;;;;5014550;28;20018;-78
2022/10/01 13:29:58;;;;;;;5.43;4.20;;;;;;;;;;4983872;28;20069;-79
2022/10/01 13:32:26;;;;;;;5.78;4.60;;;;;;;;;;4991407;28;20033;-79
2022/10/01 13:34:52;;;;;;;7.57;4.60;;;;;;;;;;5010572;28;20022;-79
2022/10/01 13:37:29;;;;;;;6.18;4.65;;;;;;;;;;4971139;28;20093;-79
2022/10/01 13:39:55;;;;;;;6.72;4.82;;;;;;;;;;4969355;28;20046;-78
2022/10/01 13:42:23;;;;;;;6.40;5.07;;;;;;;;;;4956773;28;20025;-78
2022/10/01 13:44:58;;;;;;;9.25;5.40;;;;;;;;;;4996039;28;20042;-78
2022/10/01 13:47:24;;;;;;;11.90;4.95;;;;;;;;;;4975113;28;20096;-78
2022/10/01 13:50:00;;;;;;;7.13;4.78;;;;;;;;;;4966491;28;20033;-78
2022/10/01 13:52:25;;;;;;;8.32;4.82;;;;;;;;;;4981960;28;20120;-81
2022/10/01 13:54:52;;;;;;;5.97;4.50;;;;;;;;;;4981890;28;20117;-77
2022/10/01 13:57:31;;;;;;;7.75;4.70;;;;;;;;;;5001258;28;20039;-77
2022/10/01 14:00:17;;;;;;;7.65;4.80;;;;;;;;;;4993938;28;20037;-79
2022/10/01 14:02:43;;;;;;;9.43;5.13;;;;;;;;;;4995778;28;20034;-78
2022/10/01 14:05:41;;;;;;;6.95;5.20;;;;;;;;;;4973927;28;20468;-79
2022/10/01 14:08:20;;;;;;;7.93;5.20;;;;;;;;;;4965232;28;20519;-78
2022/10/01 14:16:30;;;;;;;11.80;5.97;;;;;;;;;;4986396;28;20378;-77
2022/10/01 14:18:55;;;;;;;9.40;6.43;;;;;;;;;;4979937;28;20022;-76
2022/10/01 14:21:36;;;;;;;9.50;6.63;;;;;;;;;;4969197;28;20042;-79
2022/10/01 14:24:21;;;;;;;10.02;6.40;;;;;;;;;;4992900;28;20039;-77
2022/10/01 14:26:51;;;;;;;9.10;5.70;;;;;;;;;;5002168;28;20417;-79
2022/10/01 14:29:17;;;;;;;10.13;6.80;;;;;;;;;;4986404;28;20052;-79
2022/10/01 14:32:01;;;;;;;9.45;7.07;;;;;;;;;;5011299;28;20026;-78
2022/10/01 14:34:30;;;;;;;10.57;6.65;;;;;;;;;;4996766;28;20060;-79
2022/10/01 14:36:55;;;;;;;9.10;6.97;;;;;;;;;;5000791;28;20025;-80
2022/10/01 14:39:22;;;;;;;15.13;8.60;;;;;;;;;;5025570;28;20464;-76
2022/10/01 14:41:48;;;;;;;9.32;6.03;;;;;;;;;;5007075;28;20379;-78
2022/10/01 14:44:37;;;;;;;10.57;8.40;;;;;;;;;;5004910;28;20033;-78
2022/10/01 14:47:10;;;;;;;12.73;9.57;;;;;;;;;;4997765;28;20038;-79
2022/10/01 14:49:36;;;;;;;9.70;7.40;;;;;;;;;;4998815;28;20048;-80
2022/10/01 14:52:05;;;;;;;10.68;7.00;;;;;;;;;;5024794;28;20117;-79
2022/10/01 14:54:42;;;;;;;10.23;8.98;;;;;;;;;;5011293;28;20396;-79
2022/10/01 14:57:08;;;;;;;12.38;8.70;;;;;;;;;;4982402;28;20118;-78
2022/10/01 14:59:35;;;;;;;10.45;8.82;;;;;;;;;;4997783;28;20503;-79
2022/10/01 15:02:02;;;;;;;12.63;8.95;;;;;;;;;;5025859;28;20038;-77
2022/10/01 15:04:27;;;;;;;17.38;9.80;;;;;;;;;;5008891;28;20030;-80
2022/10/01 15:06:53;;;;;;;11.75;9.05;;;;;;;;;;5006728;28;20133;-79